Time;durP1;ratioP1;P1;durP2;ratioP2;P2;SDS_P1;SDS_P2;PMS_P1;PMS_P2;Temp;Humidity;BMP_temperature;BMP_pressure;BME280_temperature;BME280_humidity;BME280_pressure;Samples;Min_cycle;Max_cycle;Signal;HPM_P1;HPM_P2
2021/11/23 00:02:16;;;;;;;;;18.00;15.75;;;;;-147.17;100.00;50377.47;5030989;28;51159;-62
2021/11/23 00:04:41;;;;;;;;;20.50;18.75;;;;;-147.17;100.00;50371.56;5031656;28;51523;-64
2021/11/23 00:07:06;;;;;;;;;19.00;15.75;;;;;-147.17;100.00;50377.47;5021468;28;51135;-64
2021/11/23 00:09:35;;;;;;;;;19.50;18.25;;;;;-147.17;100.00;50395.19;5032833;28;51308;-62
2021/11/23 00:12:00;;;;;;;;;22.50;20.50;;;;;-147.17;100.00;50379.44;5024815;28;52197;-63
2021/11/23 00:14:26;;;;;;;;;22.75;18.50;;;;;-147.17;100.00;50397.16;5032294;28;51085;-62
2021/11/23 00:16:51;;;;;;;;;26.25;23.75;;;;;-147.17;100.00;50371.56;5038741;28;50950;-63
2021/11/23 00:19:16;;;;;;;;;19.50;18.75;;;;;-147.17;100.00;50395.19;5020412;28;51365;-63
2021/11/23 00:21:42;;;;;;;;;18.25;16.50;;;;;-147.17;100.00;50395.19;5020107;28;52054;-62
2021/11/23 00:24:08;;;;;;;;;19.00;18.75;;;;;-147.17;100.00;50391.25;5032961;28;50960;-63
2021/11/23 00:26:34;;;;;;;;;23.50;22.75;;;;;-147.17;100.00;50373.53;5031508;28;51195;-62
2021/11/23 00:28:59;;;;;;;;;19.50;18.50;;;;;-147.17;100.00;50363.69;5032547;28;51172;-62
2021/11/23 00:31:25;;;;;;;;;20.00;17.75;;;;;-147.17;100.00;50375.50;5028981;28;55199;-62
2021/11/23 00:33:50;;;;;;;;;24.00;18.25;;;;;-147.17;100.00;50403.06;5027634;28;51090;-62
2021/11/23 00:36:15;;;;;;;;;14.00;12.50;;;;;-147.17;100.00;50371.56;5031100;28;51145;-61
2021/11/23 00:38:45;;;;;;;;;20.75;19.00;;;;;-147.17;100.00;50387.31;5024501;28;51418;-65
2021/11/23 00:41:12;;;;;;;;;17.75;17.00;;;;;-147.17;100.00;50401.09;5032407;28;51163;-64
2021/11/23 00:43:38;;;;;;;;;18.00;17.75;;;;;-147.17;100.00;50407.00;5028777;28;50978;-63
2021/11/23 00:46:03;;;;;;;;;21.00;19.25;;;;;-147.17;100.00;50371.56;5024858;28;51215;-63
2021/11/23 00:48:28;;;;;;;;;17.75;15.50;;;;;-147.17;100.00;50379.44;5025594;28;51036;-62
2021/11/23 00:50:53;;;;;;;;;16.75;15.50;;;;;-147.17;100.00;50393.22;5030042;28;51668;-61
2021/11/23 00:53:19;;;;;;;;;19.00;16.50;;;;;-147.17;100.00;50347.94;5033168;28;50982;-62
2021/11/23 00:55:45;;;;;;;;;26.00;19.75;;;;;-147.17;100.00;50383.38;5023880;28;52372;-62
2021/11/23 00:58:11;;;;;;;;;20.75;19.25;;;;;-147.17;100.00;50383.38;5028363;28;51151;-62
2021/11/23 01:00:36;;;;;;;;;19.25;18.25;;;;;-147.17;100.00;50371.56;5032477;28;52638;-63
2021/11/23 01:03:01;;;;;;;;;19.75;16.75;;;;;-147.17;100.00;50407.00;5007157;28;51059;-62
2021/11/23 01:05:27;;;;;;;;;20.00;19.50;;;;;-147.17;100.00;50379.44;5031479;28;51199;-61
2021/11/23 01:07:53;;;;;;;;;21.25;19.75;;;;;-147.17;100.00;50397.16;5036730;28;51074;-62
2021/11/23 01:10:18;;;;;;;;;24.25;23.00;;;;;-147.17;100.00;50381.41;5035141;28;51763;-62
2021/11/23 01:12:44;;;;;;;;;19.50;19.25;;;;;-147.17;100.00;50405.03;5019474;28;50928;-61
2021/11/23 01:15:09;;;;;;;;;19.50;18.75;;;;;-147.17;100.00;50393.22;5037889;28;50792;-61
2021/11/23 01:17:35;;;;;;;;;20.25;20.00;;;;;-147.17;100.00;50367.63;5037551;28;51145;-60
2021/11/23 01:20:01;;;;;;;;;20.00;19.50;;;;;-147.17;100.00;50359.75;5037954;28;51846;-62
2021/11/23 01:22:26;;;;;;;;;22.25;20.00;;;;;-147.17;100.00;50379.44;5035683;28;51102;-61
2021/11/23 01:24:52;;;;;;;;;19.75;19.00;;;;;-147.17;100.00;50383.38;5036878;28;51341;-61
2021/11/23 01:27:17;;;;;;;;;20.50;20.50;;;;;-147.17;100.00;50361.72;5037513;28;51150;-61
2021/11/23 01:29:43;;;;;;;;;19.00;16.50;;;;;-147.17;100.00;50389.28;5034663;28;51150;-62
2021/11/23 01:32:08;;;;;;;;;19.00;18.50;;;;;-147.17;100.00;50399.13;5029968;28;51434;-64
2021/11/23 01:34:34;;;;;;;;;20.50;19.50;;;;;-147.17;100.00;50387.31;5017975;28;51162;-64
2021/11/23 01:37:00;;;;;;;;;19.25;19.25;;;;;-147.17;100.00;50395.19;5034519;28;50983;-64
2021/11/23 01:39:25;;;;;;;;;22.00;20.50;;;;;-147.17;100.00;50403.06;5034916;28;51205;-64
2021/11/23 01:41:51;;;;;;;;;20.00;19.00;;;;;-147.17;100.00;50385.34;5032619;28;51181;-64
2021/11/23 01:44:17;;;;;;;;;21.75;20.75;;;;;-147.17;100.00;50389.28;5032779;28;52305;-64
2021/11/23 01:46:42;;;;;;;;;23.50;20.50;;;;;-147.17;100.00;50385.34;5033863;28;51085;-65
2021/11/23 01:49:08;;;;;;;;;18.00;16.50;;;;;-147.17;100.00;50375.50;5030372;28;51694;-65
2021/11/23 01:51:33;;;;;;;;;20.25;17.75;;;;;-147.17;100.00;50383.38;5035429;28;51051;-66
2021/11/23 01:53:59;;;;;;;;;21.75;20.75;;;;;-147.17;100.00;50377.47;5027821;28;51255;-64
2021/11/23 01:56:25;;;;;;;;;20.00;20.00;;;;;-147.17;100.00;50359.75;5034969;28;51355;-64
2021/11/23 01:58:51;;;;;;;;;22.00;19.50;;;;;-147.17;100.00;50399.13;5027074;28;52545;-64
2021/11/23 02:01:17;;;;;;;;;25.00;22.75;;;;;-147.17;100.00;50349.91;5035758;28;51097;-65
2021/11/23 02:03:43;;;;;;;;;24.25;24.00;;;;;-147.17;100.00;50407.00;5032582;28;51039;-65
2021/11/23 02:06:09;;;;;;;;;21.50;19.50;;;;;-147.17;100.00;50369.59;5034690;28;51536;-65
2021/11/23 02:08:35;;;;;;;;;25.50;23.00;;;;;-147.17;100.00;50426.69;5031887;28;52043;-65
2021/11/23 02:11:00;;;;;;;;;28.25;24.50;;;;;-147.17;100.00;50385.34;5034663;28;51331;-64
2021/11/23 02:13:29;;;;;;;;;20.50;19.00;;;;;-147.17;100.00;50387.31;5034739;28;51388;-64
2021/11/23 02:15:56;;;;;;;;;24.25;23.00;;;;;-147.17;100.00;50405.03;5030073;28;51945;-64
2021/11/23 02:18:23;;;;;;;;;22.00;20.50;;;;;-147.17;100.00;50393.22;5017625;28;52028;-64
2021/11/23 02:20:50;;;;;;;;;22.75;22.25;;;;;-147.17;100.00;50387.31;5033081;28;51120;-63
2021/11/23 02:23:17;;;;;;;;;25.00;22.75;;;;;-147.17;100.00;50361.72;5028593;28;51162;-64
2021/11/23 02:25:43;;;;;;;;;24.25;23.25;;;;;-147.17;100.00;50381.41;5024474;28;51319;-64
2021/11/23 02:28:11;;;;;;;;;23.50;22.75;;;;;-147.17;100.00;50397.16;5034698;28;52039;-64
2021/11/23 02:30:42;;;;;;;;;22.25;19.75;;;;;-147.17;100.00;50383.38;5032658;28;50984;-66
2021/11/23 02:33:07;;;;;;;;;20.75;18.00;;;;;-147.17;100.00;50371.56;5032557;28;51002;-65
2021/11/23 02:35:33;;;;;;;;;22.75;22.00;;;;;-147.17;100.00;50399.13;5032543;28;51140;-66
2021/11/23 02:37:59;;;;;;;;;16.25;15.75;;;;;-147.17;100.00;50347.94;5030770;28;53509;-65
2021/11/23 02:40:24;;;;;;;;;21.00;21.00;;;;;-147.17;100.00;50367.63;5033203;28;51025;-66
2021/11/23 02:42:50;;;;;;;;;23.75;21.75;;;;;-147.17;100.00;50393.22;5018879;28;50951;-65
2021/11/23 02:45:17;;;;;;;;;20.50;18.75;;;;;-147.17;100.00;50407.00;5021640;28;51284;-64
2021/11/23 02:47:43;;;;;;;;;20.75;19.75;;;;;-147.17;100.00;50375.50;5032370;28;51367;-64
2021/11/23 02:50:12;;;;;;;;;28.00;25.75;;;;;-147.17;100.00;50395.19;5027463;28;51094;-65
2021/11/23 02:52:38;;;;;;;;;26.25;24.00;;;;;-147.17;100.00;50387.31;5032314;28;50967;-65
2021/11/23 02:55:05;;;;;;;;;27.50;22.75;;;;;-147.17;100.00;50375.50;5033072;28;51412;-65
2021/11/23 02:57:33;;;;;;;;;21.50;19.50;;;;;-147.17;100.00;50397.16;5033107;28;51582;-65
2021/11/23 02:59:59;;;;;;;;;23.25;22.75;;;;;-147.17;100.00;50410.94;5030289;28;51229;-65
2021/11/23 03:02:25;;;;;;;;;28.00;22.75;;;;;-147.17;100.00;50408.97;5034196;28;50920;-65
2021/11/23 03:04:55;;;;;;;;;22.50;21.50;;;;;-147.17;100.00;50371.56;5034056;28;51121;-65
2021/11/23 03:07:22;;;;;;;;;23.00;21.50;;;;;-147.17;100.00;50375.50;5033112;28;51092;-65
2021/11/23 03:09:48;;;;;;;;;19.75;19.75;;;;;-147.17;100.00;50391.25;5032412;28;51002;-65
2021/11/23 03:12:22;;;;;;;;;17.25;17.25;;;;;-147.17;100.00;50422.75;5032910;28;51083;-65
2021/11/23 03:14:48;;;;;;;;;23.00;22.75;;;;;-147.17;100.00;50373.53;5029553;28;51067;-65
2021/11/23 03:17:16;;;;;;;;;18.25;17.75;;;;;-147.17;100.00;50385.34;5024743;28;51035;-65
2021/11/23 03:19:42;;;;;;;;;20.00;19.00;;;;;-147.17;100.00;50381.41;5014077;28;51101;-64
2021/11/23 03:22:09;;;;;;;;;20.25;19.00;;;;;-147.17;100.00;50387.31;5013483;28;51158;-65
2021/11/23 03:24:36;;;;;;;;;28.25;25.50;;;;;-147.17;100.00;50401.09;5023009;28;51297;-65
2021/11/23 03:27:01;;;;;;;;;24.50;21.75;;;;;-147.17;100.00;50387.31;5015185;28;51262;-65
2021/11/23 03:29:27;;;;;;;;;24.25;21.75;;;;;-147.17;100.00;50391.25;5031530;28;51171;-65
2021/11/23 03:31:53;;;;;;;;;23.25;20.75;;;;;-147.17;100.00;50387.31;5013745;28;50932;-65
2021/11/23 03:34:20;;;;;;;;;15.50;15.00;;;;;-147.17;100.00;50379.44;5024578;28;51034;-65
2021/11/23 03:36:45;;;;;;;;;23.50;21.75;;;;;-147.17;100.00;50424.72;5033458;28;51837;-65
2021/11/23 03:39:11;;;;;;;;;20.25;18.75;;;;;-147.17;100.00;50407.00;5033622;28;51145;-65
2021/11/23 03:41:37;;;;;;;;;21.00;18.75;;;;;-147.17;100.00;50399.13;5022253;28;51032;-64
2021/11/23 03:44:04;;;;;;;;;22.75;21.00;;;;;-147.17;100.00;50387.31;5033160;28;50952;-64
2021/11/23 03:46:29;;;;;;;;;17.25;17.25;;;;;-147.17;100.00;50412.91;5024616;28;51111;-64
2021/11/23 03:48:55;;;;;;;;;23.25;21.50;;;;;-147.17;100.00;50383.38;5029426;28;51109;-64
2021/11/23 03:51:20;;;;;;;;;24.25;19.50;;;;;-147.17;100.00;50387.31;5033077;28;51281;-64
2021/11/23 03:53:46;;;;;;;;;19.50;18.75;;;;;-147.17;100.00;50397.16;5032534;28;51162;-64
2021/11/23 03:56:13;;;;;;;;;27.25;21.75;;;;;-147.17;100.00;50403.06;5032732;28;52000;-64
2021/11/23 03:58:39;;;;;;;;;19.25;19.00;;;;;-147.17;100.00;50383.38;5033175;28;51155;-64
2021/11/23 04:01:05;;;;;;;;;22.50;21.00;;;;;-147.17;100.00;50393.22;5032286;28;50908;-64
2021/11/23 04:03:31;;;;;;;;;20.50;20.25;;;;;-147.17;100.00;50414.88;5031767;28;51456;-64
2021/11/23 04:05:57;;;;;;;;;21.25;21.25;;;;;-147.17;100.00;50420.78;5014497;28;53501;-64
2021/11/23 04:08:23;;;;;;;;;19.25;19.00;;;;;-147.17;100.00;50369.59;5013528;28;51298;-67
2021/11/23 04:10:49;;;;;;;;;18.00;17.50;;;;;-147.17;100.00;50405.03;5025738;28;51161;-64
2021/11/23 04:13:16;;;;;;;;;19.25;18.00;;;;;-147.17;100.00;50418.81;5025303;28;51071;-65
2021/11/23 04:15:41;;;;;;;;;19.75;18.25;;;;;-147.17;100.00;50391.25;5031403;28;51709;-64
2021/11/23 04:18:08;;;;;;;;;21.25;20.50;;;;;-147.17;100.00;50403.06;5031741;28;51017;-64
2021/11/23 04:20:33;;;;;;;;;19.25;18.50;;;;;-147.17;100.00;50410.94;5030252;28;51099;-64
2021/11/23 04:22:59;;;;;;;;;17.75;16.50;;;;;-147.17;100.00;50403.06;5028061;28;50974;-64
2021/11/23 04:25:24;;;;;;;;;21.25;18.25;;;;;-147.17;100.00;50418.81;5014246;28;51966;-64
2021/11/23 04:27:51;;;;;;;;;21.50;20.50;;;;;-147.17;100.00;50430.63;5020995;28;51217;-64
2021/11/23 04:30:16;;;;;;;;;21.00;18.00;;;;;-147.17;100.00;50414.88;5031562;28;50963;-64
2021/11/23 04:32:43;;;;;;;;;27.00;23.50;;;;;-147.17;100.00;50416.84;5032792;28;50990;-64
2021/11/23 04:35:08;;;;;;;;;18.25;16.50;;;;;-147.17;100.00;50418.81;5028080;28;51829;-63
2021/11/23 04:37:34;;;;;;;;;21.25;19.25;;;;;-147.17;100.00;50379.44;5030805;28;51020;-64
2021/11/23 04:39:59;;;;;;;;;19.00;17.00;;;;;-147.17;100.00;50407.00;5031496;28;51035;-64
2021/11/23 04:42:24;;;;;;;;;21.50;18.25;;;;;-147.17;100.00;50403.06;5015396;28;51281;-63
2021/11/23 04:44:50;;;;;;;;;20.25;18.25;;;;;-147.17;100.00;50418.81;5020311;28;51090;-64
2021/11/23 04:47:15;;;;;;;;;18.25;18.25;;;;;-147.17;100.00;50416.84;5029028;28;51117;-64
2021/11/23 04:49:41;;;;;;;;;18.75;18.00;;;;;-147.17;100.00;50410.94;5032496;28;51192;-64
2021/11/23 04:52:06;;;;;;;;;18.75;16.50;;;;;-147.17;100.00;50405.03;5032895;28;51280;-64
2021/11/23 04:54:33;;;;;;;;;19.25;18.50;;;;;-147.17;100.00;50399.13;5030489;28;52992;-64
2021/11/23 04:56:58;;;;;;;;;22.75;21.50;;;;;-147.17;100.00;50391.25;5030501;28;51362;-64
2021/11/23 04:59:24;;;;;;;;;21.00;19.50;;;;;-147.17;100.00;50434.56;5028508;28;51145;-64
2021/11/23 05:01:49;;;;;;;;;18.50;17.75;;;;;-147.17;100.00;50387.31;5012679;28;51011;-63
2021/11/23 05:04:15;;;;;;;;;20.00;18.75;;;;;-147.17;100.00;50403.06;5014800;28;51922;-65
2021/11/23 05:06:40;;;;;;;;;21.75;18.75;;;;;-147.17;100.00;50416.84;5028152;28;51453;-64
2021/11/23 05:09:05;;;;;;;;;19.50;17.50;;;;;-147.17;100.00;50430.63;5017562;28;51358;-65
2021/11/23 05:11:34;;;;;;;;;24.75;21.00;;;;;-147.17;100.00;50430.63;5021073;28;51066;-65
2021/11/23 05:13:59;;;;;;;;;26.50;21.50;;;;;-147.17;100.00;50403.06;5016643;28;52414;-65
2021/11/23 05:16:24;;;;;;;;;16.50;15.00;;;;;-147.17;100.00;50397.16;5024488;28;52299;-65
2021/11/23 05:18:50;;;;;;;;;20.75;20.25;;;;;-147.17;100.00;50391.25;5012684;28;51135;-64
2021/11/23 05:21:15;;;;;;;;;23.50;18.50;;;;;-147.17;100.00;50397.16;5028179;28;51270;-64
2021/11/23 05:23:41;;;;;;;;;18.50;17.50;;;;;-147.17;100.00;50405.03;5020507;28;51793;-64
2021/11/23 05:26:06;;;;;;;;;19.00;18.50;;;;;-147.17;100.00;50403.06;5028296;28;51236;-64
2021/11/23 05:28:31;;;;;;;;;24.75;20.50;;;;;-147.17;100.00;50412.91;5031965;28;51723;-65
2021/11/23 05:30:57;;;;;;;;;25.50;21.00;;;;;-147.17;100.00;50426.69;5027271;28;51113;-64
2021/11/23 05:33:22;;;;;;;;;15.75;14.25;;;;;-147.17;100.00;50399.13;5031729;28;50963;-65
2021/11/23 05:35:51;;;;;;;;;20.75;18.50;;;;;-147.17;100.00;50424.72;5013723;28;50957;-64
2021/11/23 05:38:18;;;;;;;;;22.25;20.00;;;;;-147.17;100.00;50432.59;5032537;28;51052;-64
2021/11/23 05:40:44;;;;;;;;;21.25;17.50;;;;;-147.17;100.00;50412.91;5031686;28;51086;-64
2021/11/23 05:43:11;;;;;;;;;18.75;17.00;;;;;-147.17;100.00;50389.28;5022692;28;51874;-65
2021/11/23 05:45:36;;;;;;;;;22.00;18.75;;;;;-147.17;100.00;50418.81;5026195;28;50983;-65
2021/11/23 05:48:01;;;;;;;;;21.00;17.00;;;;;-147.17;100.00;50412.91;5034931;28;51078;-65
2021/11/23 05:50:27;;;;;;;;;21.75;21.75;;;;;-147.17;100.00;50410.94;5034829;28;51126;-65
2021/11/23 05:52:52;;;;;;;;;20.50;19.25;;;;;-147.17;100.00;50403.06;5035284;28;52591;-65
2021/11/23 05:55:18;;;;;;;;;19.25;18.00;;;;;-147.17;100.00;50414.88;5035087;28;50884;-65
2021/11/23 05:57:43;;;;;;;;;20.50;18.00;;;;;-147.17;100.00;50405.03;5019446;28;50984;-64
2021/11/23 06:00:09;;;;;;;;;16.50;15.50;;;;;-147.17;100.00;50395.19;5032298;28;51031;-65
2021/11/23 06:02:35;;;;;;;;;17.75;16.50;;;;;-147.17;100.00;50403.06;5025920;28;51777;-64
2021/11/23 06:05:02;;;;;;;;;21.00;18.00;;;;;-147.17;100.00;50410.94;5031673;28;51067;-64
2021/11/23 06:07:28;;;;;;;;;20.00;18.00;;;;;-147.17;100.00;50397.16;5025404;28;51126;-65
2021/11/23 06:09:53;;;;;;;;;21.50;18.75;;;;;-147.17;100.00;50438.50;5018158;28;51160;-64
2021/11/23 06:12:18;;;;;;;;;18.00;17.25;;;;;-147.17;100.00;50414.88;5032041;28;51283;-64
2021/11/23 06:14:44;;;;;;;;;28.50;25.25;;;;;-147.17;100.00;50408.97;5033990;28;51030;-64
2021/11/23 06:17:10;;;;;;;;;22.50;18.75;;;;;-147.17;100.00;50442.44;5032812;28;51002;-66
2021/11/23 06:19:37;;;;;;;;;21.75;18.75;;;;;-147.17;100.00;50432.59;5017770;28;52204;-65
2021/11/23 06:22:03;;;;;;;;;19.25;16.75;;;;;-147.17;100.00;50397.16;5021168;28;51013;-64
2021/11/23 06:24:29;;;;;;;;;19.25;18.75;;;;;-147.17;100.00;50430.63;5034346;28;50939;-64
2021/11/23 06:26:54;;;;;;;;;19.75;18.25;;;;;-147.17;100.00;50393.22;5035938;28;51110;-64
2021/11/23 06:29:19;;;;;;;;;21.25;18.75;;;;;-147.17;100.00;50440.47;5033870;28;51095;-64
2021/11/23 06:31:45;;;;;;;;;21.50;18.00;;;;;-147.17;100.00;50422.75;5014535;28;50982;-64
2021/11/23 06:34:10;;;;;;;;;21.00;19.25;;;;;-147.17;100.00;50420.78;5024382;28;51053;-64
2021/11/23 06:36:36;;;;;;;;;18.50;15.25;;;;;-147.17;100.00;50405.03;5034599;28;51737;-64
2021/11/23 06:39:04;;;;;;;;;18.25;17.00;;;;;-147.17;100.00;50432.59;5033577;28;51264;-64
2021/11/23 06:41:30;;;;;;;;;19.75;17.75;;;;;-147.17;100.00;50379.44;5016437;28;51268;-65
2021/11/23 06:43:56;;;;;;;;;19.50;17.25;;;;;-147.17;100.00;50434.56;5023428;28;50972;-64
2021/11/23 06:46:22;;;;;;;;;21.75;20.50;;;;;-147.17;100.00;50389.28;5034314;28;50945;-65
2021/11/23 06:48:47;;;;;;;;;16.50;16.50;;;;;-147.17;100.00;50444.41;5033956;28;51297;-66
2021/11/23 06:51:13;;;;;;;;;18.75;18.25;;;;;-147.17;100.00;50428.66;5032975;28;51819;-66
2021/11/23 06:53:38;;;;;;;;;20.00;18.00;;;;;-147.17;100.00;50410.94;5037343;28;51033;-63
2021/11/23 06:56:04;;;;;;;;;21.00;21.00;;;;;-147.17;100.00;50485.75;5034579;28;51046;-65
2021/11/23 06:58:29;;;;;;;;;17.00;17.00;;;;;-147.17;100.00;50434.56;5030287;28;51448;-66
2021/11/23 07:00:54;;;;;;;;;18.75;16.25;;;;;-147.17;100.00;50446.38;5034696;28;51570;-65
2021/11/23 07:03:20;;;;;;;;;17.25;15.25;;;;;-147.17;100.00;50448.34;5034072;28;51062;-64
2021/11/23 07:05:45;;;;;;;;;20.50;20.00;;;;;-147.17;100.00;50426.69;5034858;28;50995;-65
2021/11/23 07:08:11;;;;;;;;;16.25;14.75;;;;;-147.17;100.00;50407.00;5033067;28;51081;-65
2021/11/23 07:10:36;;;;;;;;;18.75;17.25;;;;;-147.17;100.00;50448.34;5023930;28;50999;-65
2021/11/23 07:13:02;;;;;;;;;13.00;11.25;;;;;-147.17;100.00;50466.06;5028734;28;51066;-65
2021/11/23 07:15:28;;;;;;;;;18.25;15.75;;;;;-147.17;100.00;50430.63;5034294;28;51099;-65
2021/11/23 07:17:53;;;;;;;;;18.00;16.25;;;;;-147.17;100.00;50430.63;5032339;28;51103;-65
2021/11/23 07:20:19;;;;;;;;;14.00;12.25;;;;;-147.17;100.00;50424.72;5033119;28;51815;-63
2021/11/23 07:22:45;;;;;;;;;16.00;15.00;;;;;-147.17;100.00;50436.53;5032897;28;50900;-65
2021/11/23 07:25:11;;;;;;;;;15.25;14.00;;;;;-147.17;100.00;50426.69;5031286;28;51137;-63
2021/11/23 07:27:37;;;;;;;;;16.00;13.50;;;;;-147.17;100.00;50422.75;5028706;28;51193;-66
2021/11/23 07:30:05;;;;;;;;;15.00;13.75;;;;;-147.17;100.00;50448.34;5025975;28;51796;-66
2021/11/23 07:32:30;;;;;;;;;19.25;15.75;;;;;-147.17;100.00;50418.81;5028462;28;51329;-65
2021/11/23 07:34:56;;;;;;;;;33.75;27.00;;;;;-147.17;100.00;50456.22;5030676;28;51190;-66
2021/11/23 07:37:21;;;;;;;;;18.00;16.00;;;;;-147.17;100.00;50426.69;5020227;28;51233;-65
2021/11/23 07:39:47;;;;;;;;;15.25;14.50;;;;;-147.17;100.00;50434.56;5030098;28;52833;-65
2021/11/23 07:42:13;;;;;;;;;16.50;14.00;;;;;-147.17;100.00;50432.59;5032151;28;51229;-65
2021/11/23 07:44:39;;;;;;;;;14.75;14.25;;;;;-147.17;100.00;50399.13;5032610;28;51090;-65
2021/11/23 07:47:04;;;;;;;;;17.25;14.25;;;;;-147.17;100.00;50448.34;5033126;28;50998;-66
2021/11/23 07:49:30;;;;;;;;;13.00;11.50;;;;;-147.17;100.00;50436.53;5028997;28;51281;-65
2021/11/23 07:51:55;;;;;;;;;14.25;14.25;;;;;-147.17;100.00;50432.59;5031476;28;51252;-65
2021/11/23 07:54:20;;;;;;;;;11.25;11.25;;;;;-147.17;100.00;50471.97;5032231;28;51451;-66
2021/11/23 07:56:46;;;;;;;;;18.25;16.00;;;;;-147.17;100.00;50446.38;5033100;28;50987;-66
2021/11/23 07:59:12;;;;;;;;;15.50;15.00;;;;;-147.17;100.00;50422.75;5031992;28;52421;-66
2021/11/23 08:01:38;;;;;;;;;17.25;16.25;;;;;-147.17;100.00;50460.16;5020735;28;50903;-66
2021/11/23 08:04:04;;;;;;;;;14.25;13.75;;;;;-147.17;100.00;50450.31;5031202;28;51160;-66
2021/11/23 08:06:30;;;;;;;;;17.50;14.50;;;;;-147.17;100.00;50454.25;5032867;28;51252;-66
2021/11/23 08:08:55;;;;;;;;;14.00;13.50;;;;;-147.17;100.00;50462.13;5020700;28;51903;-65
2021/11/23 08:11:21;;;;;;;;;15.50;14.75;;;;;-147.17;100.00;50448.34;5032814;28;51128;-66
2021/11/23 08:13:46;;;;;;;;;14.25;14.25;;;;;-147.17;100.00;50446.38;5031650;28;51078;-64
2021/11/23 08:16:11;;;;;;;;;22.75;18.50;;;;;-147.17;100.00;50456.22;5027109;28;51050;-64
2021/11/23 08:18:37;;;;;;;;;16.25;15.00;;;;;-147.17;100.00;50466.06;5029373;28;51897;-65
2021/11/23 08:21:03;;;;;;;;;15.00;14.00;;;;;-147.17;100.00;50466.06;5032796;28;51026;-65
2021/11/23 08:23:29;;;;;;;;;17.00;13.75;;;;;-147.17;100.00;50436.53;5032167;28;51121;-65
2021/11/23 08:25:55;;;;;;;;;16.75;14.50;;;;;-147.17;100.00;50450.31;5032886;28;50891;-64
2021/11/23 08:28:24;;;;;;;;;13.25;12.50;;;;;-147.17;100.00;50430.63;5032929;28;51021;-64
2021/11/23 08:30:50;;;;;;;;;17.50;14.00;;;;;-147.17;100.00;50462.13;5032575;28;51167;-65
2021/11/23 08:33:16;;;;;;;;;12.50;12.00;;;;;-147.17;100.00;50452.28;5031112;28;51006;-65
2021/11/23 08:35:41;;;;;;;;;14.00;13.25;;;;;-147.17;100.00;50448.34;5032189;28;51018;-65
2021/11/23 08:38:07;;;;;;;;;13.50;13.50;;;;;-147.17;100.00;50501.50;5032056;28;51748;-65
2021/11/23 08:40:32;;;;;;;;;13.00;10.75;;;;;-147.17;100.00;50460.16;5032329;28;51059;-65
2021/11/23 08:42:58;;;;;;;;;15.50;14.75;;;;;-147.17;100.00;50466.06;5032277;28;51157;-67
2021/11/23 08:45:24;;;;;;;;;18.00;15.50;;;;;-147.17;100.00;50483.78;5029938;28;51572;-65
2021/11/23 08:47:49;;;;;;;;;13.50;13.00;;;;;-147.17;100.00;50489.69;5031812;28;51243;-64
2021/11/23 08:50:15;;;;;;;;;14.00;10.00;;;;;-147.17;100.00;50497.56;5030200;28;51162;-66
2021/11/23 08:52:41;;;;;;;;;10.25;9.50;;;;;-147.17;100.00;50473.94;5031000;28;50957;-64
2021/11/23 08:55:06;;;;;;;;;11.00;8.50;;;;;-147.17;100.00;50485.75;5032502;28;51102;-66
2021/11/23 08:57:33;;;;;;;;;13.00;11.00;;;;;-147.17;100.00;50497.56;5031299;28;51761;-64
2021/11/23 09:00:31;;;;;;;;;10.50;10.00;;;;;-147.17;100.00;50470.00;5024528;28;50918;-65
2021/11/23 09:02:53;;;;;;;;;7.50;7.50;;;;;-147.17;100.00;50493.63;5013285;28;51386;-65
2021/11/23 09:05:21;;;;;;;;;9.50;7.75;;;;;-147.17;100.00;50511.34;5011306;28;51130;-65
2021/11/23 09:07:47;;;;;;;;;14.00;12.25;;;;;-147.17;100.00;50489.69;5010638;28;53028;-65
2021/11/23 09:10:20;;;;;;;;;9.75;9.25;;;;;-147.17;100.00;50485.75;5022886;28;51054;-65
2021/11/23 09:12:47;;;;;;;;;9.25;9.25;;;;;-147.17;100.00;50521.19;5032121;28;51077;-65
2021/11/23 09:15:13;;;;;;;;;9.25;9.25;;;;;-147.17;99.92;50505.44;5032485;28;51344;-66
2021/11/23 09:17:39;;;;;;;;;8.50;8.25;;;;;-147.17;99.10;50513.31;5029413;28;51623;-65
2021/11/23 09:20:06;;;;;;;;;7.00;7.00;;;;;-147.17;98.57;50536.94;5028552;28;50999;-65
2021/11/23 09:22:31;;;;;;;;;7.75;6.25;;;;;-147.17;98.05;50493.63;5040758;28;51122;-66
2021/11/23 09:24:57;;;;;;;;;7.00;6.75;;;;;-147.17;97.27;50515.28;5021967;28;51106;-63
2021/11/23 09:27:23;;;;;;;;;9.50;7.75;;;;;-147.17;97.29;50536.94;5025244;28;51126;-63
2021/11/23 09:29:49;;;;;;;;;7.00;6.00;;;;;-147.17;96.53;50487.72;5034815;28;51279;-65
2021/11/23 09:32:16;;;;;;;;;6.25;6.25;;;;;-147.17;95.12;50540.88;5034572;28;51126;-65
2021/11/23 09:34:41;;;;;;;;;8.00;7.00;;;;;-147.17;93.58;50529.06;5034774;28;51280;-65
2021/11/23 09:37:08;;;;;;;;;5.00;5.00;;;;;-147.17;93.56;50536.94;5034852;28;51193;-66
2021/11/23 09:39:33;;;;;;;;;11.00;10.00;;;;;-147.17;94.00;50552.69;5031604;28;51332;-66
2021/11/23 09:41:59;;;;;;;;;7.00;6.25;;;;;-147.17;94.14;50552.69;5033308;28;51172;-66
2021/11/23 09:44:26;;;;;;;;;6.75;5.50;;;;;-147.17;93.26;50564.50;5035314;28;51076;-66
2021/11/23 09:46:51;;;;;;;;;5.00;5.00;;;;;-147.17;93.36;50562.53;5034103;28;53598;-66
2021/11/23 09:49:17;;;;;;;;;9.25;7.00;;;;;-147.17;92.61;50527.09;5034439;28;51189;-66
2021/11/23 09:51:44;;;;;;;;;11.50;9.25;;;;;-147.17;92.16;50546.78;5034895;28;51131;-66
2021/11/23 09:54:10;;;;;;;;;5.75;5.25;;;;;-147.17;92.16;50564.50;5035118;28;51280;-65
2021/11/23 09:56:38;;;;;;;;;3.00;3.00;;;;;-147.17;92.17;50534.97;5034469;28;51350;-67
2021/11/23 09:59:05;;;;;;;;;6.75;5.25;;;;;-147.17;90.89;50544.81;5016140;28;50980;-66
2021/11/23 10:01:46;;;;;;;;;5.25;5.25;;;;;-147.17;89.56;50576.31;5031958;28;50977;-67
2021/11/23 10:04:11;;;;;;;;;5.25;5.25;;;;;-147.17;88.84;50588.13;5030762;28;51313;-65
2021/11/23 10:06:55;;;;;;;;;6.00;5.00;;;;;-147.17;88.66;50572.38;5020207;28;51845;-64
2021/11/23 10:09:35;;;;;;;;;5.00;5.00;;;;;-147.17;89.03;50576.31;5022908;28;51111;-65
2021/11/23 10:12:24;;;;;;;;;3.50;3.50;;;;;-147.17;88.80;50564.50;5030774;28;51068;-64
2021/11/23 10:15:11;;;;;;;;;2.50;2.50;;;;;-147.17;88.41;50570.41;5026317;28;51019;-64
2021/11/23 10:17:41;;;;;;;;;2.00;2.00;;;;;-147.17;86.73;50560.56;5033607;28;52022;-65
2021/11/23 10:20:25;;;;;;;;;2.00;2.00;;;;;-147.17;87.10;50592.06;5034611;28;51172;-65
2021/11/23 10:22:50;;;;;;;;;3.00;3.00;;;;;-147.17;86.00;50578.28;5033455;28;51002;-65
2021/11/23 10:25:16;;;;;;;;;5.25;5.25;;;;;-147.17;87.06;50588.13;5032310;28;51158;-64
2021/11/23 10:27:43;;;;;;;;;2.00;2.00;;;;;-147.17;86.26;50554.66;5036796;28;52436;-66
2021/11/23 10:30:09;;;;;;;;;2.00;2.00;;;;;-147.17;86.53;50599.94;5018025;28;51222;-65
2021/11/23 10:32:46;;;;;;;;;3.00;2.00;;;;;-147.17;85.49;50580.25;5022425;28;51070;-64
2021/11/23 10:35:17;;;;;;;;;3.00;3.00;;;;;-147.17;85.50;50564.50;5019604;28;51358;-65
2021/11/23 10:37:44;;;;;;;;;3.00;3.00;;;;;-147.17;85.36;50570.41;5002269;28;53701;-65
2021/11/23 10:40:18;;;;;;;;;3.75;3.00;;;;;-147.17;85.32;50615.69;5018101;28;51193;-65
2021/11/23 10:42:50;;;;;;;;;2.75;2.75;;;;;-147.17;85.51;50578.28;5034429;28;51044;-65
2021/11/23 10:45:16;;;;;;;;;3.50;2.00;;;;;-147.17;84.70;50605.84;5017179;28;50964;-65
2021/11/23 10:47:43;;;;;;;;;2.00;2.00;;;;;-147.17;84.74;50596.00;5033657;28;51822;-64
2021/11/23 10:50:11;;;;;;;;;2.00;2.00;;;;;-147.17;84.38;50623.56;5032836;28;51260;-66
2021/11/23 10:52:42;;;;;;;;;2.75;2.75;;;;;-147.17;85.16;50597.97;5022687;28;51043;-66
2021/11/23 10:55:07;;;;;;;;;3.00;3.00;;;;;-147.17;85.42;50615.69;5023739;28;51388;-66